sensor_id;sensor_type;location;lat;lon;timestamp;pressure;altitude;pressure_sealevel;temperature;humidity
74675;BME280;63200;48.810;12.352;2022-12-13T00:00:10;97035.72;;;-11.81;73.07
74675;BME280;63200;48.810;12.352;2022-12-13T00:02:42;97021.50;;;-11.78;72.79
74675;BME280;63200;48.810;12.352;2022-12-13T00:05:08;97030.63;;;-11.82;72.57
74675;BME280;63200;48.810;12.352;2022-12-13T00:07:34;97006.47;;;-12.02;72.53
74675;BME280;63200;48.810;12.352;2022-12-13T00:09:59;97028.78;;;-11.90;72.14
74675;BME280;63200;48.810;12.352;2022-12-13T00:12:25;96997.44;;;-12.08;72.04
74675;BME280;63200;48.810;12.352;2022-12-13T00:14:50;97021.47;;;-11.86;72.06
74675;BME280;63200;48.810;12.352;2022-12-13T00:17:16;97024.19;;;-11.88;72.13
74675;BME280;63200;48.810;12.352;2022-12-13T00:19:41;96987.66;;;-12.06;72.13
74675;BME280;63200;48.810;12.352;2022-12-13T00:22:06;96984.41;;;-12.00;72.14
74675;BME280;63200;48.810;12.352;2022-12-13T00:24:32;97008.63;;;-11.98;72.60
74675;BME280;63200;48.810;12.352;2022-12-13T00:26:57;97018.94;;;-11.96;73.07
74675;BME280;63200;48.810;12.352;2022-12-13T00:29:22;97020.25;;;-12.00;72.80
74675;BME280;63200;48.810;12.352;2022-12-13T00:31:47;97008.63;;;-11.98;73.18
74675;BME280;63200;48.810;12.352;2022-12-13T00:34:13;97023.03;;;-11.94;73.24
74675;BME280;63200;48.810;12.352;2022-12-13T00:36:38;97008.66;;;-11.90;73.16
74675;BME280;63200;48.810;12.352;2022-12-13T00:39:04;97014.84;;;-11.91;72.73
74675;BME280;63200;48.810;12.352;2022-12-13T00:41:31;97002.44;;;-11.89;72.82
74675;BME280;63200;48.810;12.352;2022-12-13T00:43:57;96999.16;;;-11.91;72.61
74675;BME280;63200;48.810;12.352;2022-12-13T00:46:24;97015.06;;;-11.84;72.46
74675;BME280;63200;48.810;12.352;2022-12-13T00:48:57;97008.19;;;-11.85;72.20
74675;BME280;63200;48.810;12.352;2022-12-13T00:51:24;96970.47;;;-12.09;72.16
74675;BME280;63200;48.810;12.352;2022-12-13T00:53:50;97010.81;;;-11.85;71.88
74675;BME280;63200;48.810;12.352;2022-12-13T00:56:18;97004.75;;;-11.85;71.54
74675;BME280;63200;48.810;12.352;2022-12-13T00:58:46;96952.75;;;-12.15;72.12
74675;BME280;63200;48.810;12.352;2022-12-13T01:01:13;96994.97;;;-11.83;72.14
74675;BME280;63200;48.810;12.352;2022-12-13T01:03:39;97003.94;;;-11.86;71.95
74675;BME280;63200;48.810;12.352;2022-12-13T01:06:14;97010.13;;;-11.95;71.94
74675;BME280;63200;48.810;12.352;2022-12-13T01:08:40;96999.13;;;-11.99;72.04
74675;BME280;63200;48.810;12.352;2022-12-13T01:11:06;97010.09;;;-12.03;71.65
74675;BME280;63200;48.810;12.352;2022-12-13T01:13:32;96996.00;;;-12.02;71.99
74675;BME280;63200;48.810;12.352;2022-12-13T01:16:01;96991.44;;;-12.00;72.06
74675;BME280;63200;48.810;12.352;2022-12-13T01:18:27;96994.38;;;-12.03;72.17
74675;BME280;63200;48.810;12.352;2022-12-13T01:21:00;96996.16;;;-12.04;72.07
74675;BME280;63200;48.810;12.352;2022-12-13T01:23:26;96999.28;;;-12.00;72.15
74675;BME280;63200;48.810;12.352;2022-12-13T01:25:52;96990.75;;;-12.02;72.27
74675;BME280;63200;48.810;12.352;2022-12-13T01:28:18;96991.94;;;-12.05;72.78
74675;BME280;63200;48.810;12.352;2022-12-13T01:30:43;96992.72;;;-12.04;72.82
74675;BME280;63200;48.810;12.352;2022-12-13T01:33:09;96991.59;;;-12.02;72.68
74675;BME280;63200;48.810;12.352;2022-12-13T01:35:34;96984.72;;;-12.03;72.41
74675;BME280;63200;48.810;12.352;2022-12-13T01:37:59;96982.78;;;-12.01;72.19
74675;BME280;63200;48.810;12.352;2022-12-13T01:40:25;96978.16;;;-12.07;72.07
74675;BME280;63200;48.810;12.352;2022-12-13T01:42:50;96968.13;;;-12.12;72.20
74675;BME280;63200;48.810;12.352;2022-12-13T01:45:27;96989.44;;;-12.07;72.27
74675;BME280;63200;48.810;12.352;2022-12-13T01:47:59;96989.31;;;-12.05;72.41
74675;BME280;63200;48.810;12.352;2022-12-13T01:50:31;96971.47;;;-12.01;72.39
74675;BME280;63200;48.810;12.352;2022-12-13T01:52:58;96980.06;;;-11.83;72.31
74675;BME280;63200;48.810;12.352;2022-12-13T01:55:27;96974.53;;;-11.80;72.03
74675;BME280;63200;48.810;12.352;2022-12-13T01:57:56;96974.03;;;-11.75;71.81
74675;BME280;63200;48.810;12.352;2022-12-13T02:00:23;96968.47;;;-11.72;71.67
74675;BME280;63200;48.810;12.352;2022-12-13T02:02:49;96977.72;;;-11.60;71.88
74675;BME280;63200;48.810;12.352;2022-12-13T02:07:45;96969.31;;;-11.37;72.49
74675;BME280;63200;48.810;12.352;2022-12-13T02:10:11;96975.72;;;-11.23;72.48
74675;BME280;63200;48.810;12.352;2022-12-13T02:12:38;96980.66;;;-11.12;72.24
74675;BME280;63200;48.810;12.352;2022-12-13T02:15:08;96978.56;;;-11.08;72.52
74675;BME280;63200;48.810;12.352;2022-12-13T02:20:42;96970.72;;;-10.83;72.51
74675;BME280;63200;48.810;12.352;2022-12-13T02:34:40;96978.28;;;-10.72;72.74
74675;BME280;63200;48.810;12.352;2022-12-13T02:39:45;96956.31;;;-10.55;72.87
74675;BME280;63200;48.810;12.352;2022-12-13T02:42:17;96958.47;;;-10.50;72.93
74675;BME280;63200;48.810;12.352;2022-12-13T02:44:51;96954.53;;;-10.46;73.31
74675;BME280;63200;48.810;12.352;2022-12-13T02:47:24;96947.31;;;-10.52;74.02
74675;BME280;63200;48.810;12.352;2022-12-13T02:49:54;96952.88;;;-10.47;75.19
74675;BME280;63200;48.810;12.352;2022-12-13T02:52:24;96953.56;;;-10.45;75.73
74675;BME280;63200;48.810;12.352;2022-12-13T02:54:53;96941.75;;;-10.49;75.97
74675;BME280;63200;48.810;12.352;2022-12-13T02:57:34;96951.03;;;-10.30;76.27
74675;BME280;63200;48.810;12.352;2022-12-13T03:00:06;96946.63;;;-10.21;76.19
74675;BME280;63200;48.810;12.352;2022-12-13T03:11:11;96936.66;;;-9.69;76.19
74675;BME280;63200;48.810;12.352;2022-12-13T03:16:26;96925.69;;;-9.50;76.27
74675;BME280;63200;48.810;12.352;2022-12-13T03:18:56;96892.97;;;-9.71;76.67
74675;BME280;63200;48.810;12.352;2022-12-13T03:21:23;96925.22;;;-9.45;76.44
74675;BME280;63200;48.810;12.352;2022-12-13T03:23:48;96932.41;;;-9.39;76.57
74675;BME280;63200;48.810;12.352;2022-12-13T03:26:17;96932.88;;;-9.35;76.76
74675;BME280;63200;48.810;12.352;2022-12-13T03:28:44;96927.75;;;-9.29;76.95
74675;BME280;63200;48.810;12.352;2022-12-13T03:31:09;96932.13;;;-9.21;76.79
74675;BME280;63200;48.810;12.352;2022-12-13T03:33:34;96925.53;;;-9.17;76.81
74675;BME280;63200;48.810;12.352;2022-12-13T03:36:00;96924.03;;;-9.11;76.82
74675;BME280;63200;48.810;12.352;2022-12-13T03:38:27;96918.06;;;-9.05;76.52
74675;BME280;63200;48.810;12.352;2022-12-13T03:40:56;96914.56;;;-8.97;76.42
74675;BME280;63200;48.810;12.352;2022-12-13T03:43:23;96893.31;;;-9.11;76.99
74675;BME280;63200;48.810;12.352;2022-12-13T03:45:50;96918.91;;;-8.81;76.39
74675;BME280;63200;48.810;12.352;2022-12-13T03:48:16;96921.25;;;-8.63;75.66
74675;BME280;63200;48.810;12.352;2022-12-13T03:50:41;96905.84;;;-8.37;74.83
74675;BME280;63200;48.810;12.352;2022-12-13T03:53:06;96906.56;;;-8.43;74.87
74675;BME280;63200;48.810;12.352;2022-12-13T03:55:32;96899.50;;;-8.42;75.83
74675;BME280;63200;48.810;12.352;2022-12-13T03:57:57;96902.94;;;-8.42;76.88
74675;BME280;63200;48.810;12.352;2022-12-13T04:00:23;96904.50;;;-8.32;77.09
74675;BME280;63200;48.810;12.352;2022-12-13T04:02:48;96888.50;;;-8.31;76.58
74675;BME280;63200;48.810;12.352;2022-12-13T04:05:13;96859.28;;;-8.51;77.31
74675;BME280;63200;48.810;12.352;2022-12-13T04:07:39;96903.59;;;-8.25;77.52
74675;BME280;63200;48.810;12.352;2022-12-13T04:10:05;96901.25;;;-8.20;77.32
74675;BME280;63200;48.810;12.352;2022-12-13T04:12:30;96898.19;;;-8.08;77.65
74675;BME280;63200;48.810;12.352;2022-12-13T04:15:14;96866.13;;;-8.12;76.85
74675;BME280;63200;48.810;12.352;2022-12-13T04:17:39;96857.13;;;-8.02;76.57
74675;BME280;63200;48.810;12.352;2022-12-13T04:20:05;96859.94;;;-7.89;76.40
74675;BME280;63200;48.810;12.352;2022-12-13T04:22:31;96894.28;;;-7.82;76.79
74675;BME280;63200;48.810;12.352;2022-12-13T04:24:56;96882.56;;;-7.80;77.13
74675;BME280;63200;48.810;12.352;2022-12-13T04:27:21;96889.97;;;-7.54;76.42
74675;BME280;63200;48.810;12.352;2022-12-13T04:29:47;96854.75;;;-7.82;76.31
74675;BME280;63200;48.810;12.352;2022-12-13T04:32:12;96877.47;;;-7.81;77.02
74675;BME280;63200;48.810;12.352;2022-12-13T04:34:37;96859.31;;;-8.06;77.06
74675;BME280;63200;48.810;12.352;2022-12-13T04:37:03;96863.19;;;-8.02;77.41
74675;BME280;63200;48.810;12.352;2022-12-13T04:39:28;96890.19;;;-8.00;77.39
74675;BME280;63200;48.810;12.352;2022-12-13T04:41:54;96862.41;;;-8.02;76.88
74675;BME280;63200;48.810;12.352;2022-12-13T04:44:19;96890.91;;;-8.06;77.23
74675;BME280;63200;48.810;12.352;2022-12-13T04:46:44;96872.56;;;-8.29;77.40
74675;BME280;63200;48.810;12.352;2022-12-13T04:49:10;96885.63;;;-8.21;77.67
74675;BME280;63200;48.810;12.352;2022-12-13T04:51:35;96884.81;;;-8.22;77.44
74675;BME280;63200;48.810;12.352;2022-12-13T04:54:00;96860.28;;;-8.37;77.32
74675;BME280;63200;48.810;12.352;2022-12-13T04:56:26;96843.78;;;-8.46;77.19
74675;BME280;63200;48.810;12.352;2022-12-13T04:58:51;96871.00;;;-8.24;77.26
74675;BME280;63200;48.810;12.352;2022-12-13T05:01:16;96870.44;;;-8.34;77.56
74675;BME280;63200;48.810;12.352;2022-12-13T05:03:42;96844.03;;;-8.56;77.69
74675;BME280;63200;48.810;12.352;2022-12-13T05:06:09;96870.28;;;-8.47;77.79
74675;BME280;63200;48.810;12.352;2022-12-13T05:08:36;96870.25;;;-8.62;78.16
74675;BME280;63200;48.810;12.352;2022-12-13T05:11:02;96864.72;;;-8.67;78.72
74675;BME280;63200;48.810;12.352;2022-12-13T05:13:27;96849.22;;;-8.62;78.56
74675;BME280;63200;48.810;12.352;2022-12-13T05:15:55;96836.06;;;-8.85;78.36
74675;BME280;63200;48.810;12.352;2022-12-13T05:18:20;96853.56;;;-8.55;78.23
74675;BME280;63200;48.810;12.352;2022-12-13T05:20:46;96863.97;;;-8.61;77.29
74675;BME280;63200;48.810;12.352;2022-12-13T05:23:11;96866.28;;;-8.58;76.29
74675;BME280;63200;48.810;12.352;2022-12-13T05:25:36;96864.94;;;-8.77;76.19
74675;BME280;63200;48.810;12.352;2022-12-13T05:28:02;96868.59;;;-9.01;76.81
74675;BME280;63200;48.810;12.352;2022-12-13T05:30:27;96845.97;;;-9.11;76.44
74675;BME280;63200;48.810;12.352;2022-12-13T05:32:52;96838.84;;;-9.25;76.64
74675;BME280;63200;48.810;12.352;2022-12-13T05:35:17;96875.63;;;-9.25;77.56
74675;BME280;63200;48.810;12.352;2022-12-13T05:37:43;96838.66;;;-9.47;77.82
74675;BME280;63200;48.810;12.352;2022-12-13T05:40:09;96873.69;;;-9.31;78.34
74675;BME280;63200;48.810;12.352;2022-12-13T05:42:36;96882.06;;;-9.28;78.14
74675;BME280;63200;48.810;12.352;2022-12-13T05:45:04;96873.19;;;-9.27;78.11
74675;BME280;63200;48.810;12.352;2022-12-13T05:47:30;96879.31;;;-9.34;77.99
74675;BME280;63200;48.810;12.352;2022-12-13T05:49:55;96886.72;;;-9.38;77.76
74675;BME280;63200;48.810;12.352;2022-12-13T05:52:21;96879.50;;;-9.36;77.94
74675;BME280;63200;48.810;12.352;2022-12-13T05:54:47;96890.00;;;-9.36;77.85
74675;BME280;63200;48.810;12.352;2022-12-13T05:57:13;96888.53;;;-9.39;78.43
74675;BME280;63200;48.810;12.352;2022-12-13T05:59:39;96885.44;;;-9.42;78.21
74675;BME280;63200;48.810;12.352;2022-12-13T06:02:04;96882.47;;;-9.39;77.97
74675;BME280;63200;48.810;12.352;2022-12-13T06:04:30;96877.72;;;-9.44;77.71
74675;BME280;63200;48.810;12.352;2022-12-13T06:06:55;96847.19;;;-9.76;77.98
74675;BME280;63200;48.810;12.352;2022-12-13T06:09:21;96868.78;;;-9.66;77.68
74675;BME280;63200;48.810;12.352;2022-12-13T06:11:47;96877.69;;;-9.67;77.95
74675;BME280;63200;48.810;12.352;2022-12-13T06:14:13;96878.97;;;-9.63;77.99
74675;BME280;63200;48.810;12.352;2022-12-13T06:16:39;96870.25;;;-9.63;78.54
74675;BME280;63200;48.810;12.352;2022-12-13T06:19:04;96872.09;;;-9.64;78.25
74675;BME280;63200;48.810;12.352;2022-12-13T06:21:33;96868.47;;;-9.63;78.58
74675;BME280;63200;48.810;12.352;2022-12-13T06:23:59;96866.47;;;-9.61;78.82
74675;BME280;63200;48.810;12.352;2022-12-13T06:26:24;96860.47;;;-9.69;78.83
74675;BME280;63200;48.810;12.352;2022-12-13T06:28:49;96874.19;;;-9.59;78.83
74675;BME280;63200;48.810;12.352;2022-12-13T06:31:15;96871.91;;;-9.62;78.61
74675;BME280;63200;48.810;12.352;2022-12-13T06:33:40;96880.56;;;-9.53;78.15
74675;BME280;63200;48.810;12.352;2022-12-13T06:36:06;96888.09;;;-9.50;78.65
74675;BME280;63200;48.810;12.352;2022-12-13T06:38:31;96879.91;;;-9.56;77.90
74675;BME280;63200;48.810;12.352;2022-12-13T06:41:26;96886.56;;;-9.68;78.16
74675;BME280;63200;48.810;12.352;2022-12-13T06:43:51;96881.13;;;-9.66;78.12
74675;BME280;63200;48.810;12.352;2022-12-13T06:46:16;96866.56;;;-9.85;78.13
74675;BME280;63200;48.810;12.352;2022-12-13T06:48:42;96886.91;;;-9.79;78.30
74675;BME280;63200;48.810;12.352;2022-12-13T06:51:08;96881.03;;;-9.81;77.93
74675;BME280;63200;48.810;12.352;2022-12-13T06:53:35;96888.72;;;-9.80;77.74
74675;BME280;63200;48.810;12.352;2022-12-13T06:56:11;96889.72;;;-9.81;77.61
74675;BME280;63200;48.810;12.352;2022-12-13T06:58:36;96885.13;;;-9.79;78.02
74675;BME280;63200;48.810;12.352;2022-12-13T07:03:35;96878.84;;;-9.78;77.83
74675;BME280;63200;48.810;12.352;2022-12-13T07:06:16;96864.97;;;-9.86;77.57
74675;BME280;63200;48.810;12.352;2022-12-13T07:08:46;96887.25;;;-9.82;77.41
74675;BME280;63200;48.810;12.352;2022-12-13T07:11:13;96887.31;;;-9.91;77.84
74675;BME280;63200;48.810;12.352;2022-12-13T07:13:40;96880.94;;;-10.05;77.94
74675;BME280;63200;48.810;12.352;2022-12-13T07:16:05;96878.13;;;-10.03;77.91
74675;BME280;63200;48.810;12.352;2022-12-13T07:18:31;96875.38;;;-10.10;77.54
74675;BME280;63200;48.810;12.352;2022-12-13T07:20:56;96884.38;;;-10.04;78.02
74675;BME280;63200;48.810;12.352;2022-12-13T07:23:21;96896.81;;;-9.98;77.74
74675;BME280;63200;48.810;12.352;2022-12-13T07:25:51;96893.88;;;-10.03;77.71
74675;BME280;63200;48.810;12.352;2022-12-13T07:28:18;96890.44;;;-10.03;77.42
74675;BME280;63200;48.810;12.352;2022-12-13T07:30:43;96894.91;;;-10.12;77.66
74675;BME280;63200;48.810;12.352;2022-12-13T07:33:09;96903.72;;;-9.97;77.97
74675;BME280;63200;48.810;12.352;2022-12-13T07:35:34;96886.63;;;-9.93;77.44
74675;BME280;63200;48.810;12.352;2022-12-13T07:37:59;96869.81;;;-10.07;76.67
74675;BME280;63200;48.810;12.352;2022-12-13T07:40:25;96860.28;;;-10.08;76.50
74675;BME280;63200;48.810;12.352;2022-12-13T07:42:54;96892.09;;;-10.02;76.40
74675;BME280;63200;48.810;12.352;2022-12-13T07:45:21;96889.00;;;-10.14;76.82
74675;BME280;63200;48.810;12.352;2022-12-13T07:47:47;96892.97;;;-10.18;77.18
74675;BME280;63200;48.810;12.352;2022-12-13T07:50:13;96892.63;;;-10.32;77.09
74675;BME280;63200;48.810;12.352;2022-12-13T07:52:39;96889.09;;;-10.39;76.86
74675;BME280;63200;48.810;12.352;2022-12-13T07:55:05;96861.94;;;-10.79;77.26
74675;BME280;63200;48.810;12.352;2022-12-13T07:57:31;96888.28;;;-10.48;77.10
74675;BME280;63200;48.810;12.352;2022-12-13T07:59:57;96878.66;;;-10.08;76.44
74675;BME280;63200;48.810;12.352;2022-12-13T08:02:22;96894.91;;;-10.12;75.09
74675;BME280;63200;48.810;12.352;2022-12-13T08:04:48;96865.59;;;-10.32;74.62
74675;BME280;63200;48.810;12.352;2022-12-13T08:07:13;96876.91;;;-10.24;75.43
74675;BME280;63200;48.810;12.352;2022-12-13T08:09:38;96891.06;;;-9.85;75.55
74675;BME280;63200;48.810;12.352;2022-12-13T08:12:04;96877.44;;;-9.89;73.82
74675;BME280;63200;48.810;12.352;2022-12-13T08:14:30;96905.72;;;-10.07;74.15
74675;BME280;63200;48.810;12.352;2022-12-13T08:16:56;96903.13;;;-10.24;73.82
74675;BME280;63200;48.810;12.352;2022-12-13T08:19:21;96865.06;;;-10.19;73.42
74675;BME280;63200;48.810;12.352;2022-12-13T08:21:46;96895.31;;;-9.92;73.32
74675;BME280;63200;48.810;12.352;2022-12-13T08:24:12;96872.53;;;-9.92;72.97
74675;BME280;63200;48.810;12.352;2022-12-13T08:26:37;96893.19;;;-9.49;72.19
74675;BME280;63200;48.810;12.352;2022-12-13T08:29:03;96894.47;;;-9.13;70.83
74675;BME280;63200;48.810;12.352;2022-12-13T08:31:29;96891.91;;;-8.75;69.86
74675;BME280;63200;48.810;12.352;2022-12-13T08:33:55;96889.06;;;-8.50;68.79
74675;BME280;63200;48.810;12.352;2022-12-13T08:36:20;96901.44;;;-8.06;67.53
74675;BME280;63200;48.810;12.352;2022-12-13T08:38:53;96878.84;;;-7.85;66.58
74675;BME280;63200;48.810;12.352;2022-12-13T08:41:19;96903.28;;;-7.10;65.33
74675;BME280;63200;48.810;12.352;2022-12-13T08:43:45;96873.19;;;-6.94;64.13
74675;BME280;63200;48.810;12.352;2022-12-13T08:46:10;96898.53;;;-6.00;61.76
74675;BME280;63200;48.810;12.352;2022-12-13T08:48:35;96843.31;;;-5.26;57.50
74675;BME280;63200;48.810;12.352;2022-12-13T08:51:02;96901.44;;;-4.64;55.48
74675;BME280;63200;48.810;12.352;2022-12-13T08:53:27;96897.41;;;-4.20;54.63
74675;BME280;63200;48.810;12.352;2022-12-13T08:55:53;96887.09;;;-2.65;52.85
74675;BME280;63200;48.810;12.352;2022-12-13T08:58:18;96908.78;;;-1.68;49.23
74675;BME280;63200;48.810;12.352;2022-12-13T09:00:44;96894.94;;;-1.76;47.60
74675;BME280;63200;48.810;12.352;2022-12-13T09:03:10;96923.28;;;-1.08;47.97
74675;BME280;63200;48.810;12.352;2022-12-13T09:05:35;96917.31;;;-0.42;47.53
74675;BME280;63200;48.810;12.352;2022-12-13T09:08:02;96916.81;;;-0.81;48.02
74675;BME280;63200;48.810;12.352;2022-12-13T09:10:28;96920.19;;;-1.23;49.99
74675;BME280;63200;48.810;12.352;2022-12-13T09:12:55;96922.59;;;-1.33;50.50
74675;BME280;63200;48.810;12.352;2022-12-13T09:15:23;96923.22;;;-1.20;51.02
74675;BME280;63200;48.810;12.352;2022-12-13T09:17:49;96919.63;;;-0.46;50.13
74675;BME280;63200;48.810;12.352;2022-12-13T09:20:15;96900.22;;;0.13;48.08
74675;BME280;63200;48.810;12.352;2022-12-13T09:22:41;96918.78;;;0.55;47.24
74675;BME280;63200;48.810;12.352;2022-12-13T09:25:07;96912.41;;;0.44;47.85
74675;BME280;63200;48.810;12.352;2022-12-13T09:27:33;96925.75;;;0.21;48.82
74675;BME280;63200;48.810;12.352;2022-12-13T09:29:58;96917.16;;;-0.05;50.01
74675;BME280;63200;48.810;12.352;2022-12-13T09:32:24;96914.22;;;-0.27;49.85
74675;BME280;63200;48.810;12.352;2022-12-13T09:34:51;96888.50;;;-0.94;51.02
74675;BME280;63200;48.810;12.352;2022-12-13T09:37:17;96882.31;;;-0.76;50.21
74675;BME280;63200;48.810;12.352;2022-12-13T09:39:42;96867.63;;;-0.67;48.50
74675;BME280;63200;48.810;12.352;2022-12-13T09:42:17;96893.41;;;-0.37;49.77
74675;BME280;63200;48.810;12.352;2022-12-13T09:44:53;96881.31;;;-0.21;48.07
74675;BME280;63200;48.810;12.352;2022-12-13T09:47:32;96884.41;;;-0.67;49.55
74675;BME280;63200;48.810;12.352;2022-12-13T09:49:59;96848.88;;;-1.21;52.04
74675;BME280;63200;48.810;12.352;2022-12-13T09:52:37;96865.94;;;-0.38;50.33
74675;BME280;63200;48.810;12.352;2022-12-13T09:57:42;96879.44;;;-0.21;47.33
74675;BME280;63200;48.810;12.352;2022-12-13T10:00:12;96860.72;;;-0.87;49.57
74675;BME280;63200;48.810;12.352;2022-12-13T10:02:50;96874.13;;;-1.24;51.25
74675;BME280;63200;48.810;12.352;2022-12-13T10:05:38;96870.38;;;-0.74;51.26
74675;BME280;63200;48.810;12.352;2022-12-13T10:08:13;96863.91;;;-0.24;49.70
74675;BME280;63200;48.810;12.352;2022-12-13T10:10:39;96858.00;;;0.10;48.54
74675;BME280;63200;48.810;12.352;2022-12-13T10:15:31;96846.41;;;0.69;49.18
74675;BME280;63200;48.810;12.352;2022-12-13T10:17:58;96817.47;;;0.77;46.51
74675;BME280;63200;48.810;12.352;2022-12-13T10:20:25;96825.22;;;0.79;48.16
74675;BME280;63200;48.810;12.352;2022-12-13T10:22:52;96840.25;;;0.68;48.76
74675;BME280;63200;48.810;12.352;2022-12-13T10:25:45;96838.84;;;1.06;44.43
74675;BME280;63200;48.810;12.352;2022-12-13T10:28:12;96834.53;;;1.34;45.25
74675;BME280;63200;48.810;12.352;2022-12-13T10:30:40;96838.22;;;1.62;44.76
74675;BME280;63200;48.810;12.352;2022-12-13T10:38:40;96799.44;;;1.98;42.32
74675;BME280;63200;48.810;12.352;2022-12-13T10:41:25;96819.75;;;2.16;43.56
74675;BME280;63200;48.810;12.352;2022-12-13T10:44:17;96828.31;;;2.58;41.74
74675;BME280;63200;48.810;12.352;2022-12-13T10:47:11;96821.91;;;1.97;43.60
74675;BME280;63200;48.810;12.352;2022-12-13T10:52:32;96814.75;;;1.18;44.90
74675;BME280;63200;48.810;12.352;2022-12-13T10:55:04;96817.28;;;1.42;45.62
74675;BME280;63200;48.810;12.352;2022-12-13T10:57:30;96821.91;;;1.80;45.58
74675;BME280;63200;48.810;12.352;2022-12-13T10:59:56;96817.50;;;1.23;45.80
74675;BME280;63200;48.810;12.352;2022-12-13T11:02:36;96818.63;;;0.29;46.17
74675;BME280;63200;48.810;12.352;2022-12-13T11:05:40;96818.34;;;-0.76;50.88
74675;BME280;63200;48.810;12.352;2022-12-13T11:10:40;96820.09;;;-2.49;55.87
74675;BME280;63200;48.810;12.352;2022-12-13T11:13:06;96818.41;;;-2.94;58.27
74675;BME280;63200;48.810;12.352;2022-12-13T11:15:35;96814.50;;;-3.23;58.36
74675;BME280;63200;48.810;12.352;2022-12-13T11:18:05;96812.25;;;-3.65;60.25
74675;BME280;63200;48.810;12.352;2022-12-13T11:20:36;96808.78;;;-3.27;59.61
74675;BME280;63200;48.810;12.352;2022-12-13T11:23:36;96808.84;;;-3.40;59.86
74675;BME280;63200;48.810;12.352;2022-12-13T11:26:16;96795.31;;;-3.71;61.34
74675;BME280;63200;48.810;12.352;2022-12-13T11:34:37;96778.91;;;-4.06;61.63
74675;BME280;63200;48.810;12.352;2022-12-13T11:37:44;96790.50;;;-3.94;61.35
74675;BME280;63200;48.810;12.352;2022-12-13T11:40:26;96772.78;;;-4.00;61.69
74675;BME280;63200;48.810;12.352;2022-12-13T11:42:58;96800.28;;;-3.94;62.56
74675;BME280;63200;48.810;12.352;2022-12-13T11:45:37;96780.16;;;-4.09;61.60
74675;BME280;63200;48.810;12.352;2022-12-13T11:50:40;96799.06;;;-3.92;62.76
74675;BME280;63200;48.810;12.352;2022-12-13T11:53:27;96792.31;;;-3.81;62.50
74675;BME280;63200;48.810;12.352;2022-12-13T12:01:03;96765.66;;;-4.06;61.55
74675;BME280;63200;48.810;12.352;2022-12-13T12:03:51;96794.09;;;-3.75;60.84
74675;BME280;63200;48.810;12.352;2022-12-13T12:09:48;96778.41;;;-2.99;59.03
74675;BME280;63200;48.810;12.352;2022-12-13T12:12:22;96780.84;;;-2.47;57.67
74675;BME280;63200;48.810;12.352;2022-12-13T12:14:58;96777.88;;;-2.13;56.99
74675;BME280;63200;48.810;12.352;2022-12-13T12:17:25;96745.22;;;-2.02;56.01
74675;BME280;63200;48.810;12.352;2022-12-13T12:19:56;96768.84;;;-1.57;55.33
74675;BME280;63200;48.810;12.352;2022-12-13T12:25:48;96754.16;;;-1.96;54.11
74675;BME280;63200;48.810;12.352;2022-12-13T12:34:32;96741.59;;;-1.71;54.25
74675;BME280;63200;48.810;12.352;2022-12-13T12:36:52;96756.28;;;-1.68;54.67
74675;BME280;63200;48.810;12.352;2022-12-13T12:39:43;96751.16;;;-1.51;54.87
74675;BME280;63200;48.810;12.352;2022-12-13T12:45:32;96751.47;;;-1.59;54.33
74675;BME280;63200;48.810;12.352;2022-12-13T12:48:16;96752.50;;;-1.60;55.19
74675;BME280;63200;48.810;12.352;2022-12-13T12:51:20;96757.53;;;-1.52;54.59
74675;BME280;63200;48.810;12.352;2022-12-13T12:53:53;96757.34;;;-1.39;53.60
74675;BME280;63200;48.810;12.352;2022-12-13T12:56:58;96717.28;;;-1.93;54.67
74675;BME280;63200;48.810;12.352;2022-12-13T12:59:43;96726.09;;;-2.11;55.20
74675;BME280;63200;48.810;12.352;2022-12-13T13:02:29;96736.00;;;-1.99;55.22
74675;BME280;63200;48.810;12.352;2022-12-13T13:05:02;96746.09;;;-1.71;55.26
74675;BME280;63200;48.810;12.352;2022-12-13T13:07:32;96741.38;;;-1.88;55.18
74675;BME280;63200;48.810;12.352;2022-12-13T13:10:00;96749.13;;;-2.23;55.98
74675;BME280;63200;48.810;12.352;2022-12-13T13:12:27;96717.16;;;-3.04;57.44
74675;BME280;63200;48.810;12.352;2022-12-13T13:14:53;96748.59;;;-3.33;58.88
74675;BME280;63200;48.810;12.352;2022-12-13T13:20:10;96759.59;;;-3.68;61.00
74675;BME280;63200;48.810;12.352;2022-12-13T13:22:37;96756.19;;;-3.82;61.70
74675;BME280;63200;48.810;12.352;2022-12-13T13:27:33;96748.09;;;-3.94;61.58
74675;BME280;63200;48.810;12.352;2022-12-13T13:30:20;96757.69;;;-3.93;61.51
74675;BME280;63200;48.810;12.352;2022-12-13T13:32:48;96738.38;;;-4.13;61.67
74675;BME280;63200;48.810;12.352;2022-12-13T13:37:59;96762.44;;;-4.15;62.79
74675;BME280;63200;48.810;12.352;2022-12-13T13:40:37;96742.31;;;-4.36;62.92
74675;BME280;63200;48.810;12.352;2022-12-13T14:15:46;96745.84;;;-4.82;64.06
74675;BME280;63200;48.810;12.352;2022-12-13T14:28:55;96764.53;;;-4.97;64.47
74675;BME280;63200;48.810;12.352;2022-12-13T14:31:37;96771.91;;;-4.99;64.33
74675;BME280;63200;48.810;12.352;2022-12-13T14:34:04;96767.81;;;-5.02;64.57
74675;BME280;63200;48.810;12.352;2022-12-13T14:36:33;96764.75;;;-5.06;64.52
74675;BME280;63200;48.810;12.352;2022-12-13T14:39:20;96763.94;;;-5.13;64.69
74675;BME280;63200;48.810;12.352;2022-12-13T14:41:49;96744.56;;;-5.33;65.68
74675;BME280;63200;48.810;12.352;2022-12-13T14:44:17;96762.28;;;-5.34;65.71
74675;BME280;63200;48.810;12.352;2022-12-13T14:46:57;96762.66;;;-5.44;65.64
74675;BME280;63200;48.810;12.352;2022-12-13T14:49:25;96763.06;;;-5.54;66.44
74675;BME280;63200;48.810;12.352;2022-12-13T14:52:19;96762.81;;;-5.65;66.57
74675;BME280;63200;48.810;12.352;2022-12-13T14:54:55;96775.34;;;-5.81;66.73
74675;BME280;63200;48.810;12.352;2022-12-13T14:57:24;96768.59;;;-5.97;66.78
74675;BME280;63200;48.810;12.352;2022-12-13T14:59:52;96765.69;;;-6.15;66.49
74675;BME280;63200;48.810;12.352;2022-12-13T15:02:22;96763.81;;;-6.28;66.89
74675;BME280;63200;48.810;12.352;2022-12-13T15:04:47;96755.84;;;-6.35;67.66
74675;BME280;63200;48.810;12.352;2022-12-13T15:09:51;96751.88;;;-6.53;67.73